sensor_id;sensor_type;location;lat;lon;timestamp;temperature;humidity
73955;DHT22;62306;52.516;13.290;2023-09-08T00:02:04;20.60;93.10
73955;DHT22;62306;52.516;13.290;2023-09-08T00:04:31;20.50;93.30
73955;DHT22;62306;52.516;13.290;2023-09-08T00:06:58;20.50;93.40
73955;DHT22;62306;52.516;13.290;2023-09-08T00:09:25;20.50;93.80
73955;DHT22;62306;52.516;13.290;2023-09-08T00:11:53;20.40;93.70
73955;DHT22;62306;52.516;13.290;2023-09-08T00:14:20;20.50;93.70
73955;DHT22;62306;52.516;13.290;2023-09-08T00:16:47;20.50;93.60
73955;DHT22;62306;52.516;13.290;2023-09-08T00:19:14;20.50;93.40
73955;DHT22;62306;52.516;13.290;2023-09-08T00:21:41;20.50;93.50
73955;DHT22;62306;52.516;13.290;2023-09-08T00:24:08;20.50;93.70
73955;DHT22;62306;52.516;13.290;2023-09-08T00:26:36;20.40;93.90
73955;DHT22;62306;52.516;13.290;2023-09-08T00:29:04;20.50;93.80
73955;DHT22;62306;52.516;13.290;2023-09-08T00:31:31;20.50;93.90
73955;DHT22;62306;52.516;13.290;2023-09-08T00:33:58;20.50;94.30
73955;DHT22;62306;52.516;13.290;2023-09-08T00:36:25;20.50;94.30
73955;DHT22;62306;52.516;13.290;2023-09-08T00:38:52;20.50;94.40
73955;DHT22;62306;52.516;13.290;2023-09-08T00:41:19;20.40;94.30
73955;DHT22;62306;52.516;13.290;2023-09-08T00:43:46;20.40;94.70
73955;DHT22;62306;52.516;13.290;2023-09-08T00:46:14;20.40;94.20
73955;DHT22;62306;52.516;13.290;2023-09-08T00:48:41;20.30;94.30
73955;DHT22;62306;52.516;13.290;2023-09-08T00:51:09;20.30;94.60
73955;DHT22;62306;52.516;13.290;2023-09-08T00:53:36;20.30;94.70
73955;DHT22;62306;52.516;13.290;2023-09-08T00:56:04;20.20;95.00
73955;DHT22;62306;52.516;13.290;2023-09-08T00:58:31;20.20;94.80
73955;DHT22;62306;52.516;13.290;2023-09-08T01:00:58;20.20;95.30
73955;DHT22;62306;52.516;13.290;2023-09-08T01:03:26;20.20;95.10
73955;DHT22;62306;52.516;13.290;2023-09-08T01:05:54;20.10;95.20
73955;DHT22;62306;52.516;13.290;2023-09-08T01:08:22;20.10;95.10
73955;DHT22;62306;52.516;13.290;2023-09-08T01:10:49;20.10;95.10
73955;DHT22;62306;52.516;13.290;2023-09-08T01:13:15;20.10;95.50
73955;DHT22;62306;52.516;13.290;2023-09-08T01:15:42;20.10;95.30
73955;DHT22;62306;52.516;13.290;2023-09-08T01:18:09;20.10;95.50
73955;DHT22;62306;52.516;13.290;2023-09-08T01:21:03;20.00;95.50
73955;DHT22;62306;52.516;13.290;2023-09-08T01:23:43;20.00;95.30
73955;DHT22;62306;52.516;13.290;2023-09-08T01:26:17;20.10;95.60
73955;DHT22;62306;52.516;13.290;2023-09-08T01:28:49;20.00;95.50
73955;DHT22;62306;52.516;13.290;2023-09-08T01:31:16;20.10;95.30
73955;DHT22;62306;52.516;13.290;2023-09-08T01:33:44;20.00;95.40
73955;DHT22;62306;52.516;13.290;2023-09-08T01:36:12;20.00;95.50
73955;DHT22;62306;52.516;13.290;2023-09-08T01:38:39;20.00;95.60
73955;DHT22;62306;52.516;13.290;2023-09-08T01:41:06;20.00;95.60
73955;DHT22;62306;52.516;13.290;2023-09-08T01:43:34;20.00;95.50
73955;DHT22;62306;52.516;13.290;2023-09-08T01:46:01;20.00;95.60
73955;DHT22;62306;52.516;13.290;2023-09-08T01:48:28;19.90;95.80
73955;DHT22;62306;52.516;13.290;2023-09-08T01:50:55;19.90;96.00
73955;DHT22;62306;52.516;13.290;2023-09-08T01:53:22;19.80;96.20
73955;DHT22;62306;52.516;13.290;2023-09-08T01:55:48;19.80;96.30
73955;DHT22;62306;52.516;13.290;2023-09-08T01:58:15;19.70;96.40
73955;DHT22;62306;52.516;13.290;2023-09-08T02:00:48;19.70;96.50
73955;DHT22;62306;52.516;13.290;2023-09-08T02:03:15;19.70;96.50
73955;DHT22;62306;52.516;13.290;2023-09-08T02:05:42;19.70;96.60
73955;DHT22;62306;52.516;13.290;2023-09-08T02:08:09;19.70;96.60
73955;DHT22;62306;52.516;13.290;2023-09-08T02:10:35;19.70;96.70
73955;DHT22;62306;52.516;13.290;2023-09-08T02:13:02;19.60;96.90
73955;DHT22;62306;52.516;13.290;2023-09-08T02:15:29;19.60;96.80
73955;DHT22;62306;52.516;13.290;2023-09-08T02:17:57;19.70;96.90
73955;DHT22;62306;52.516;13.290;2023-09-08T02:20:24;19.60;96.90
73955;DHT22;62306;52.516;13.290;2023-09-08T02:22:54;19.60;97.10
73955;DHT22;62306;52.516;13.290;2023-09-08T02:25:23;19.50;97.20
73955;DHT22;62306;52.516;13.290;2023-09-08T02:27:50;19.40;97.60
73955;DHT22;62306;52.516;13.290;2023-09-08T02:30:16;19.40;97.60
73955;DHT22;62306;52.516;13.290;2023-09-08T02:32:44;19.30;97.90
73955;DHT22;62306;52.516;13.290;2023-09-08T02:35:12;19.20;98.00
73955;DHT22;62306;52.516;13.290;2023-09-08T02:37:39;19.30;98.00
73955;DHT22;62306;52.516;13.290;2023-09-08T02:40:07;19.20;98.30
73955;DHT22;62306;52.516;13.290;2023-09-08T02:42:34;19.10;98.40
73955;DHT22;62306;52.516;13.290;2023-09-08T02:45:01;19.10;98.40
73955;DHT22;62306;52.516;13.290;2023-09-08T02:47:28;19.10;98.70
73955;DHT22;62306;52.516;13.290;2023-09-08T02:49:54;19.10;98.70
73955;DHT22;62306;52.516;13.290;2023-09-08T02:52:24;19.10;98.70
73955;DHT22;62306;52.516;13.290;2023-09-08T02:54:50;19.10;98.80
73955;DHT22;62306;52.516;13.290;2023-09-08T02:57:17;19.10;98.90
73955;DHT22;62306;52.516;13.290;2023-09-08T02:59:49;19.10;98.80
73955;DHT22;62306;52.516;13.290;2023-09-08T03:02:16;19.00;99.10
73955;DHT22;62306;52.516;13.290;2023-09-08T03:04:43;19.00;99.20
73955;DHT22;62306;52.516;13.290;2023-09-08T03:07:10;19.00;99.30
73955;DHT22;62306;52.516;13.290;2023-09-08T03:09:38;19.00;99.50
73955;DHT22;62306;52.516;13.290;2023-09-08T03:12:05;19.00;99.70
73955;DHT22;62306;52.516;13.290;2023-09-08T03:14:32;18.90;99.70
73955;DHT22;62306;52.516;13.290;2023-09-08T03:16:59;18.90;99.80
73955;DHT22;62306;52.516;13.290;2023-09-08T03:19:26;18.80;99.90
73955;DHT22;62306;52.516;13.290;2023-09-08T03:21:53;18.80;99.90
73955;DHT22;62306;52.516;13.290;2023-09-08T03:24:19;18.70;99.90
73955;DHT22;62306;52.516;13.290;2023-09-08T03:26:48;18.70;99.90
73955;DHT22;62306;52.516;13.290;2023-09-08T03:29:14;18.70;99.90
73955;DHT22;62306;52.516;13.290;2023-09-08T03:31:41;18.60;99.90
73955;DHT22;62306;52.516;13.290;2023-09-08T03:34:08;18.10;99.90
73955;DHT22;62306;52.516;13.290;2023-09-08T03:36:35;18.60;99.90
73955;DHT22;62306;52.516;13.290;2023-09-08T03:39:02;18.70;99.90
73955;DHT22;62306;52.516;13.290;2023-09-08T03:41:29;18.80;99.90
73955;DHT22;62306;52.516;13.290;2023-09-08T03:43:57;18.70;99.90
73955;DHT22;62306;52.516;13.290;2023-09-08T03:46:24;18.70;99.90
73955;DHT22;62306;52.516;13.290;2023-09-08T03:48:51;18.60;99.90
73955;DHT22;62306;52.516;13.290;2023-09-08T03:51:20;18.60;99.90
73955;DHT22;62306;52.516;13.290;2023-09-08T03:53:46;18.50;99.90
73955;DHT22;62306;52.516;13.290;2023-09-08T03:56:13;18.50;99.90
73955;DHT22;62306;52.516;13.290;2023-09-08T03:58:40;18.50;99.90
73955;DHT22;62306;52.516;13.290;2023-09-08T04:01:08;18.40;99.90
73955;DHT22;62306;52.516;13.290;2023-09-08T04:03:35;18.40;99.90
73955;DHT22;62306;52.516;13.290;2023-09-08T04:06:02;18.50;99.90
73955;DHT22;62306;52.516;13.290;2023-09-08T04:08:29;18.60;99.90
73955;DHT22;62306;52.516;13.290;2023-09-08T04:10:56;18.60;99.90
73955;DHT22;62306;52.516;13.290;2023-09-08T04:13:23;18.60;99.90
73955;DHT22;62306;52.516;13.290;2023-09-08T04:15:50;18.60;99.90
73955;DHT22;62306;52.516;13.290;2023-09-08T04:18:18;18.60;99.90
73955;DHT22;62306;52.516;13.290;2023-09-08T04:20:45;18.60;99.90
73955;DHT22;62306;52.516;13.290;2023-09-08T04:23:12;18.50;99.90
73955;DHT22;62306;52.516;13.290;2023-09-08T04:25:38;18.30;99.90
73955;DHT22;62306;52.516;13.290;2023-09-08T04:28:05;18.40;99.90
73955;DHT22;62306;52.516;13.290;2023-09-08T04:30:32;18.40;99.90
73955;DHT22;62306;52.516;13.290;2023-09-08T04:32:59;18.30;99.90
73955;DHT22;62306;52.516;13.290;2023-09-08T04:35:27;18.40;99.90
73955;DHT22;62306;52.516;13.290;2023-09-08T04:37:54;18.40;99.90
73955;DHT22;62306;52.516;13.290;2023-09-08T04:40:21;18.30;99.90
73955;DHT22;62306;52.516;13.290;2023-09-08T04:42:48;18.20;99.90
73955;DHT22;62306;52.516;13.290;2023-09-08T04:45:15;18.30;99.90
73955;DHT22;62306;52.516;13.290;2023-09-08T04:47:42;18.20;99.90
73955;DHT22;62306;52.516;13.290;2023-09-08T04:50:09;18.30;99.90
73955;DHT22;62306;52.516;13.290;2023-09-08T04:52:37;18.30;99.90
73955;DHT22;62306;52.516;13.290;2023-09-08T04:55:05;18.30;99.90
73955;DHT22;62306;52.516;13.290;2023-09-08T04:57:32;18.30;99.90
73955;DHT22;62306;52.516;13.290;2023-09-08T04:59:59;18.30;99.90
73955;DHT22;62306;52.516;13.290;2023-09-08T05:02:26;18.30;99.90
73955;DHT22;62306;52.516;13.290;2023-09-08T05:04:53;18.40;99.90
73955;DHT22;62306;52.516;13.290;2023-09-08T05:07:20;18.50;99.90
73955;DHT22;62306;52.516;13.290;2023-09-08T05:09:48;18.50;99.90
73955;DHT22;62306;52.516;13.290;2023-09-08T05:12:15;18.40;99.90
73955;DHT22;62306;52.516;13.290;2023-09-08T05:14:42;18.40;99.90
73955;DHT22;62306;52.516;13.290;2023-09-08T05:17:09;18.30;99.90
73955;DHT22;62306;52.516;13.290;2023-09-08T05:19:35;18.50;99.90
73955;DHT22;62306;52.516;13.290;2023-09-08T05:22:04;18.40;99.90
73955;DHT22;62306;52.516;13.290;2023-09-08T05:24:31;18.30;99.90
73955;DHT22;62306;52.516;13.290;2023-09-08T05:26:59;18.30;99.90
73955;DHT22;62306;52.516;13.290;2023-09-08T05:29:26;18.40;99.90
73955;DHT22;62306;52.516;13.290;2023-09-08T05:31:53;18.40;99.90
73955;DHT22;62306;52.516;13.290;2023-09-08T05:34:20;18.50;99.90
73955;DHT22;62306;52.516;13.290;2023-09-08T05:36:47;18.60;99.90
73955;DHT22;62306;52.516;13.290;2023-09-08T05:39:15;18.60;99.90
73955;DHT22;62306;52.516;13.290;2023-09-08T05:41:44;18.50;99.90
73955;DHT22;62306;52.516;13.290;2023-09-08T05:44:12;18.60;99.90
73955;DHT22;62306;52.516;13.290;2023-09-08T05:46:39;18.70;99.90
73955;DHT22;62306;52.516;13.290;2023-09-08T05:49:06;18.80;99.90
73955;DHT22;62306;52.516;13.290;2023-09-08T05:51:33;18.80;99.90
73955;DHT22;62306;52.516;13.290;2023-09-08T05:53:59;18.90;99.90
73955;DHT22;62306;52.516;13.290;2023-09-08T05:56:29;19.10;99.90
73955;DHT22;62306;52.516;13.290;2023-09-08T05:58:57;19.50;99.90
73955;DHT22;62306;52.516;13.290;2023-09-08T06:01:25;19.80;99.90
73955;DHT22;62306;52.516;13.290;2023-09-08T06:03:52;20.10;99.70
73955;DHT22;62306;52.516;13.290;2023-09-08T06:06:20;20.10;99.10
73955;DHT22;62306;52.516;13.290;2023-09-08T06:08:47;20.00;99.30
73955;DHT22;62306;52.516;13.290;2023-09-08T06:11:14;20.30;99.10
73955;DHT22;62306;52.516;13.290;2023-09-08T06:13:41;20.50;98.50
73955;DHT22;62306;52.516;13.290;2023-09-08T06:16:08;20.80;98.00
73955;DHT22;62306;52.516;13.290;2023-09-08T06:18:36;21.10;97.30
73955;DHT22;62306;52.516;13.290;2023-09-08T06:21:06;21.40;97.20
73955;DHT22;62306;52.516;13.290;2023-09-08T06:23:33;21.50;96.30
73955;DHT22;62306;52.516;13.290;2023-09-08T06:26:00;21.60;96.00
73955;DHT22;62306;52.516;13.290;2023-09-08T06:28:27;21.40;95.80
73955;DHT22;62306;52.516;13.290;2023-09-08T06:30:54;21.20;96.20
73955;DHT22;62306;52.516;13.290;2023-09-08T06:33:21;21.00;96.80
73955;DHT22;62306;52.516;13.290;2023-09-08T06:35:50;21.30;96.30
73955;DHT22;62306;52.516;13.290;2023-09-08T06:38:19;21.30;95.90
73955;DHT22;62306;52.516;13.290;2023-09-08T06:40:46;21.20;95.90
73955;DHT22;62306;52.516;13.290;2023-09-08T06:43:13;21.50;95.80
73955;DHT22;62306;52.516;13.290;2023-09-08T06:45:40;21.80;95.50
73955;DHT22;62306;52.516;13.290;2023-09-08T06:48:07;21.90;95.10
73955;DHT22;62306;52.516;13.290;2023-09-08T06:50:34;21.80;94.90
73955;DHT22;62306;52.516;13.290;2023-09-08T06:53:03;22.00;95.10
73955;DHT22;62306;52.516;13.290;2023-09-08T06:55:30;22.20;94.20
73955;DHT22;62306;52.516;13.290;2023-09-08T06:57:57;22.60;94.20
73955;DHT22;62306;52.516;13.290;2023-09-08T07:00:24;22.50;93.60
73955;DHT22;62306;52.516;13.290;2023-09-08T07:02:51;22.70;93.40
73955;DHT22;62306;52.516;13.290;2023-09-08T07:05:18;22.90;93.10
73955;DHT22;62306;52.516;13.290;2023-09-08T07:07:45;23.00;92.80
73955;DHT22;62306;52.516;13.290;2023-09-08T07:10:13;23.00;92.70
73955;DHT22;62306;52.516;13.290;2023-09-08T07:12:40;23.40;92.00
73955;DHT22;62306;52.516;13.290;2023-09-08T07:15:08;23.60;91.40
73955;DHT22;62306;52.516;13.290;2023-09-08T07:17:35;23.50;91.60
73955;DHT22;62306;52.516;13.290;2023-09-08T07:20:03;23.70;90.80
73955;DHT22;62306;52.516;13.290;2023-09-08T07:22:31;23.70;91.00
73955;DHT22;62306;52.516;13.290;2023-09-08T07:24:58;23.90;90.80
73955;DHT22;62306;52.516;13.290;2023-09-08T07:27:26;24.20;90.10
73955;DHT22;62306;52.516;13.290;2023-09-08T07:29:53;24.20;90.00
73955;DHT22;62306;52.516;13.290;2023-09-08T07:32:20;24.20;88.80
73955;DHT22;62306;52.516;13.290;2023-09-08T07:34:47;24.00;89.30
73955;DHT22;62306;52.516;13.290;2023-09-08T07:37:20;24.10;89.40
73955;DHT22;62306;52.516;13.290;2023-09-08T07:39:47;24.20;88.60
73955;DHT22;62306;52.516;13.290;2023-09-08T07:42:14;24.50;88.00
73955;DHT22;62306;52.516;13.290;2023-09-08T07:44:42;24.70;86.60
73955;DHT22;62306;52.516;13.290;2023-09-08T07:47:09;24.70;86.40
73955;DHT22;62306;52.516;13.290;2023-09-08T07:49:36;24.90;85.20
73955;DHT22;62306;52.516;13.290;2023-09-08T07:52:03;24.80;86.60
73955;DHT22;62306;52.516;13.290;2023-09-08T07:54:32;25.00;85.40
73955;DHT22;62306;52.516;13.290;2023-09-08T07:56:59;25.10;84.30
73955;DHT22;62306;52.516;13.290;2023-09-08T07:59:26;25.30;84.10
73955;DHT22;62306;52.516;13.290;2023-09-08T08:01:54;25.60;82.20
73955;DHT22;62306;52.516;13.290;2023-09-08T08:04:21;25.30;82.20
73955;DHT22;62306;52.516;13.290;2023-09-08T08:06:48;25.30;83.80
73955;DHT22;62306;52.516;13.290;2023-09-08T08:09:15;25.40;83.60
73955;DHT22;62306;52.516;13.290;2023-09-08T08:11:42;25.50;82.40
73955;DHT22;62306;52.516;13.290;2023-09-08T08:14:09;25.50;82.20
73955;DHT22;62306;52.516;13.290;2023-09-08T08:16:36;25.20;81.60
73955;DHT22;62306;52.516;13.290;2023-09-08T08:19:04;25.50;82.00
73955;DHT22;62306;52.516;13.290;2023-09-08T08:21:31;25.40;80.80
73955;DHT22;62306;52.516;13.290;2023-09-08T08:23:59;25.60;80.90
73955;DHT22;62306;52.516;13.290;2023-09-08T08:26:25;25.90;79.60
73955;DHT22;62306;52.516;13.290;2023-09-08T08:28:55;26.00;79.00
73955;DHT22;62306;52.516;13.290;2023-09-08T08:31:22;25.40;79.10
73955;DHT22;62306;52.516;13.290;2023-09-08T08:33:49;25.50;80.40
73955;DHT22;62306;52.516;13.290;2023-09-08T08:36:18;25.60;79.60
73955;DHT22;62306;52.516;13.290;2023-09-08T08:38:44;25.70;79.90
73955;DHT22;62306;52.516;13.290;2023-09-08T08:41:11;25.90;79.70
73955;DHT22;62306;52.516;13.290;2023-09-08T08:43:38;26.30;79.00
73955;DHT22;62306;52.516;13.290;2023-09-08T08:46:05;26.50;77.80
73955;DHT22;62306;52.516;13.290;2023-09-08T08:48:33;26.70;76.80
73955;DHT22;62306;52.516;13.290;2023-09-08T08:51:01;27.00;76.20
73955;DHT22;62306;52.516;13.290;2023-09-08T08:53:31;27.10;75.00
73955;DHT22;62306;52.516;13.290;2023-09-08T08:55:58;27.20;74.80
73955;DHT22;62306;52.516;13.290;2023-09-08T08:58:27;27.20;74.30
73955;DHT22;62306;52.516;13.290;2023-09-08T09:00:55;27.10;74.10
73955;DHT22;62306;52.516;13.290;2023-09-08T09:03:25;27.10;73.30
73955;DHT22;62306;52.516;13.290;2023-09-08T09:05:53;27.10;74.60
73955;DHT22;62306;52.516;13.290;2023-09-08T09:08:20;27.10;74.30
73955;DHT22;62306;52.516;13.290;2023-09-08T09:10:50;27.00;73.80
73955;DHT22;62306;52.516;13.290;2023-09-08T09:13:17;26.60;73.30
73955;DHT22;62306;52.516;13.290;2023-09-08T09:15:44;27.00;74.30
73955;DHT22;62306;52.516;13.290;2023-09-08T09:18:12;26.80;73.90
73955;DHT22;62306;52.516;13.290;2023-09-08T09:20:39;27.10;73.90
73955;DHT22;62306;52.516;13.290;2023-09-08T09:23:07;27.10;73.50
73955;DHT22;62306;52.516;13.290;2023-09-08T09:25:34;27.30;73.20
73955;DHT22;62306;52.516;13.290;2023-09-08T09:28:03;27.30;72.50
73955;DHT22;62306;52.516;13.290;2023-09-08T09:30:48;27.40;73.30
73955;DHT22;62306;52.516;13.290;2023-09-08T09:33:15;27.80;72.70
73955;DHT22;62306;52.516;13.290;2023-09-08T09:35:43;27.70;70.90
73955;DHT22;62306;52.516;13.290;2023-09-08T09:38:11;27.50;71.70
73955;DHT22;62306;52.516;13.290;2023-09-08T09:40:38;27.70;71.70
73955;DHT22;62306;52.516;13.290;2023-09-08T09:43:07;27.60;71.20
73955;DHT22;62306;52.516;13.290;2023-09-08T09:45:35;27.60;71.40
73955;DHT22;62306;52.516;13.290;2023-09-08T09:48:02;27.70;71.80
73955;DHT22;62306;52.516;13.290;2023-09-08T09:50:30;27.60;71.40
73955;DHT22;62306;52.516;13.290;2023-09-08T09:53:11;27.20;70.60
73955;DHT22;62306;52.516;13.290;2023-09-08T09:55:47;27.30;72.70
73955;DHT22;62306;52.516;13.290;2023-09-08T09:58:23;27.40;71.30
73955;DHT22;62306;52.516;13.290;2023-09-08T10:00:54;27.70;71.20
73955;DHT22;62306;52.516;13.290;2023-09-08T10:03:28;27.90;70.80
73955;DHT22;62306;52.516;13.290;2023-09-08T10:06:03;28.00;70.40
73955;DHT22;62306;52.516;13.290;2023-09-08T10:09:05;27.80;69.80
73955;DHT22;62306;52.516;13.290;2023-09-08T10:12:05;27.80;70.40
73955;DHT22;62306;52.516;13.290;2023-09-08T10:14:59;28.00;69.60
73955;DHT22;62306;52.516;13.290;2023-09-08T10:17:52;28.00;70.10
73955;DHT22;62306;52.516;13.290;2023-09-08T10:20:42;28.00;69.50
73955;DHT22;62306;52.516;13.290;2023-09-08T10:23:37;28.20;68.90
73955;DHT22;62306;52.516;13.290;2023-09-08T10:26:10;28.30;68.40
73955;DHT22;62306;52.516;13.290;2023-09-08T10:28:40;28.50;67.90
73955;DHT22;62306;52.516;13.290;2023-09-08T10:31:14;28.30;67.50
73955;DHT22;62306;52.516;13.290;2023-09-08T10:33:57;28.20;67.30
73955;DHT22;62306;52.516;13.290;2023-09-08T10:36:30;28.40;67.00
73955;DHT22;62306;52.516;13.290;2023-09-08T10:39:36;28.40;66.60
73955;DHT22;62306;52.516;13.290;2023-09-08T10:42:26;28.50;66.50
73955;DHT22;62306;52.516;13.290;2023-09-08T10:45:15;28.20;66.50
73955;DHT22;62306;52.516;13.290;2023-09-08T10:48:02;28.30;66.80
73955;DHT22;62306;52.516;13.290;2023-09-08T10:50:31;28.40;65.90
73955;DHT22;62306;52.516;13.290;2023-09-08T10:53:09;28.50;65.30
73955;DHT22;62306;52.516;13.290;2023-09-08T10:55:44;28.50;65.60
73955;DHT22;62306;52.516;13.290;2023-09-08T10:58:29;28.40;65.80
73955;DHT22;62306;52.516;13.290;2023-09-08T11:01:16;28.40;65.90
73955;DHT22;62306;52.516;13.290;2023-09-08T11:03:52;28.50;65.80
73955;DHT22;62306;52.516;13.290;2023-09-08T11:06:24;28.50;64.80
73955;DHT22;62306;52.516;13.290;2023-09-08T11:09:19;28.30;65.30
73955;DHT22;62306;52.516;13.290;2023-09-08T11:11:49;28.40;65.10
73955;DHT22;62306;52.516;13.290;2023-09-08T11:14:19;28.50;64.20
73955;DHT22;62306;52.516;13.290;2023-09-08T11:17:04;28.40;64.60
73955;DHT22;62306;52.516;13.290;2023-09-08T11:19:52;28.50;64.00
73955;DHT22;62306;52.516;13.290;2023-09-08T11:22:30;28.60;64.20
73955;DHT22;62306;52.516;13.290;2023-09-08T11:25:03;28.60;63.70
73955;DHT22;62306;52.516;13.290;2023-09-08T11:27:45;28.80;63.30
73955;DHT22;62306;52.516;13.290;2023-09-08T11:30:12;28.80;62.70
73955;DHT22;62306;52.516;13.290;2023-09-08T11:32:40;28.90;62.60
73955;DHT22;62306;52.516;13.290;2023-09-08T11:35:09;28.90;62.70
73955;DHT22;62306;52.516;13.290;2023-09-08T11:37:37;28.90;62.50
73955;DHT22;62306;52.516;13.290;2023-09-08T11:40:05;29.00;62.40
73955;DHT22;62306;52.516;13.290;2023-09-08T11:42:35;28.90;63.10
73955;DHT22;62306;52.516;13.290;2023-09-08T11:45:02;29.00;63.00
73955;DHT22;62306;52.516;13.290;2023-09-08T11:47:30;28.90;61.30
73955;DHT22;62306;52.516;13.290;2023-09-08T11:49:57;28.70;61.30
73955;DHT22;62306;52.516;13.290;2023-09-08T11:52:26;28.90;60.90
73955;DHT22;62306;52.516;13.290;2023-09-08T11:54:53;29.00;61.20
73955;DHT22;62306;52.516;13.290;2023-09-08T11:57:20;29.20;60.70
73955;DHT22;62306;52.516;13.290;2023-09-08T11:59:47;28.80;60.80
73955;DHT22;62306;52.516;13.290;2023-09-08T12:02:14;28.80;60.30
73955;DHT22;62306;52.516;13.290;2023-09-08T12:04:42;28.70;60.90
73955;DHT22;62306;52.516;13.290;2023-09-08T12:07:12;28.70;60.80
73955;DHT22;62306;52.516;13.290;2023-09-08T12:09:41;28.70;60.90
73955;DHT22;62306;52.516;13.290;2023-09-08T12:12:11;28.90;62.10
73955;DHT22;62306;52.516;13.290;2023-09-08T12:14:40;29.10;60.30
73955;DHT22;62306;52.516;13.290;2023-09-08T12:17:08;28.90;59.90
73955;DHT22;62306;52.516;13.290;2023-09-08T12:19:34;28.90;60.00
73955;DHT22;62306;52.516;13.290;2023-09-08T12:22:04;29.10;60.30
73955;DHT22;62306;52.516;13.290;2023-09-08T12:24:55;28.70;60.00
73955;DHT22;62306;52.516;13.290;2023-09-08T12:27:23;28.60;59.60
73955;DHT22;62306;52.516;13.290;2023-09-08T12:29:57;28.60;59.70
73955;DHT22;62306;52.516;13.290;2023-09-08T12:32:28;28.90;60.20
73955;DHT22;62306;52.516;13.290;2023-09-08T12:34:56;29.20;59.40
73955;DHT22;62306;52.516;13.290;2023-09-08T12:37:23;29.10;58.80
73955;DHT22;62306;52.516;13.290;2023-09-08T12:39:52;28.80;59.30
73955;DHT22;62306;52.516;13.290;2023-09-08T12:42:19;28.70;59.30
73955;DHT22;62306;52.516;13.290;2023-09-08T12:44:46;28.80;59.40
73955;DHT22;62306;52.516;13.290;2023-09-08T12:47:13;28.90;58.00
73955;DHT22;62306;52.516;13.290;2023-09-08T12:49:40;28.90;58.80
73955;DHT22;62306;52.516;13.290;2023-09-08T12:52:07;28.70;58.50
73955;DHT22;62306;52.516;13.290;2023-09-08T12:54:35;28.90;58.20
73955;DHT22;62306;52.516;13.290;2023-09-08T12:57:03;29.20;58.60
73955;DHT22;62306;52.516;13.290;2023-09-08T12:59:30;29.30;57.60
73955;DHT22;62306;52.516;13.290;2023-09-08T13:01:57;29.40;57.70
73955;DHT22;62306;52.516;13.290;2023-09-08T13:04:24;29.40;57.10
73955;DHT22;62306;52.516;13.290;2023-09-08T13:06:51;29.20;57.80
73955;DHT22;62306;52.516;13.290;2023-09-08T13:09:18;29.30;58.00
73955;DHT22;62306;52.516;13.290;2023-09-08T13:11:46;29.20;58.00
73955;DHT22;62306;52.516;13.290;2023-09-08T13:14:14;29.30;57.50
73955;DHT22;62306;52.516;13.290;2023-09-08T13:16:41;29.20;58.40
73955;DHT22;62306;52.516;13.290;2023-09-08T13:19:07;29.10;57.80
73955;DHT22;62306;52.516;13.290;2023-09-08T13:21:34;29.00;58.60
73955;DHT22;62306;52.516;13.290;2023-09-08T13:24:05;29.10;58.40
73955;DHT22;62306;52.516;13.290;2023-09-08T13:26:32;29.10;58.40
73955;DHT22;62306;52.516;13.290;2023-09-08T13:28:59;28.90;58.00
73955;DHT22;62306;52.516;13.290;2023-09-08T13:31:28;29.10;58.70
73955;DHT22;62306;52.516;13.290;2023-09-08T13:33:54;29.20;57.90
73955;DHT22;62306;52.516;13.290;2023-09-08T13:36:21;29.20;57.60
73955;DHT22;62306;52.516;13.290;2023-09-08T13:38:48;28.90;56.60
73955;DHT22;62306;52.516;13.290;2023-09-08T13:41:15;28.90;57.20
73955;DHT22;62306;52.516;13.290;2023-09-08T13:43:42;28.90;56.30
73955;DHT22;62306;52.516;13.290;2023-09-08T13:46:08;29.00;57.00
73955;DHT22;62306;52.516;13.290;2023-09-08T13:48:37;29.00;57.20
73955;DHT22;62306;52.516;13.290;2023-09-08T13:51:03;28.90;57.20
73955;DHT22;62306;52.516;13.290;2023-09-08T13:53:30;29.10;57.30
73955;DHT22;62306;52.516;13.290;2023-09-08T13:55:57;29.10;57.50
73955;DHT22;62306;52.516;13.290;2023-09-08T13:58:24;29.20;57.00
73955;DHT22;62306;52.516;13.290;2023-09-08T14:00:51;29.10;56.60
73955;DHT22;62306;52.516;13.290;2023-09-08T14:03:18;29.00;57.10
73955;DHT22;62306;52.516;13.290;2023-09-08T14:05:46;29.10;56.00
73955;DHT22;62306;52.516;13.290;2023-09-08T14:08:13;29.10;56.30
73955;DHT22;62306;52.516;13.290;2023-09-08T14:10:40;29.10;55.40
73955;DHT22;62306;52.516;13.290;2023-09-08T14:13:07;29.10;56.70
73955;DHT22;62306;52.516;13.290;2023-09-08T14:15:34;29.10;56.10
73955;DHT22;62306;52.516;13.290;2023-09-08T14:18:00;28.90;55.80
73955;DHT22;62306;52.516;13.290;2023-09-08T14:20:28;28.90;56.70
73955;DHT22;62306;52.516;13.290;2023-09-08T14:22:56;29.00;57.20
73955;DHT22;62306;52.516;13.290;2023-09-08T14:25:22;29.00;57.80
73955;DHT22;62306;52.516;13.290;2023-09-08T14:27:49;28.90;56.90
73955;DHT22;62306;52.516;13.290;2023-09-08T14:30:16;28.90;56.50
73955;DHT22;62306;52.516;13.290;2023-09-08T14:32:43;28.80;56.20
73955;DHT22;62306;52.516;13.290;2023-09-08T14:35:10;28.60;56.70
73955;DHT22;62306;52.516;13.290;2023-09-08T14:37:38;28.50;57.40
73955;DHT22;62306;52.516;13.290;2023-09-08T14:40:07;28.50;56.80
73955;DHT22;62306;52.516;13.290;2023-09-08T14:42:34;28.70;56.60
73955;DHT22;62306;52.516;13.290;2023-09-08T14:45:01;28.70;56.60
73955;DHT22;62306;52.516;13.290;2023-09-08T14:47:28;28.70;56.40
73955;DHT22;62306;52.516;13.290;2023-09-08T14:49:55;28.60;56.20
73955;DHT22;62306;52.516;13.290;2023-09-08T14:52:22;28.40;55.60
73955;DHT22;62306;52.516;13.290;2023-09-08T14:54:49;28.30;55.30
73955;DHT22;62306;52.516;13.290;2023-09-08T14:57:17;28.40;56.20
73955;DHT22;62306;52.516;13.290;2023-09-08T14:59:44;28.40;56.00
73955;DHT22;62306;52.516;13.290;2023-09-08T15:02:11;28.50;56.00
73955;DHT22;62306;52.516;13.290;2023-09-08T15:04:38;28.40;55.90
73955;DHT22;62306;52.516;13.290;2023-09-08T15:07:05;28.40;56.40
73955;DHT22;62306;52.516;13.290;2023-09-08T15:09:32;28.40;56.20
73955;DHT22;62306;52.516;13.290;2023-09-08T15:11:59;28.40;57.00
73955;DHT22;62306;52.516;13.290;2023-09-08T15:14:27;28.50;55.80
73955;DHT22;62306;52.516;13.290;2023-09-08T15:16:54;28.50;55.50
73955;DHT22;62306;52.516;13.290;2023-09-08T15:19:21;28.50;56.00
73955;DHT22;62306;52.516;13.290;2023-09-08T15:21:48;28.40;56.10
73955;DHT22;62306;52.516;13.290;2023-09-08T15:24:15;28.40;55.80
73955;DHT22;62306;52.516;13.290;2023-09-08T15:26:42;28.40;56.00